createdAt,value
2017-05-09T00:00:06.110Z,65.2
2017-05-09T00:01:16.453Z,65.48
2017-05-09T00:02:26.797Z,65.39
2017-05-09T00:03:37.139Z,65.64
2017-05-09T00:04:47.488Z,65.93
2017-05-09T00:05:57.833Z,65.74
2017-05-09T00:07:08.225Z,66.41
2017-05-09T00:08:18.573Z,66.03
2017-05-09T00:09:28.939Z,66.13
2017-05-09T00:10:39.296Z,66.03
2017-05-09T00:11:49.633Z,65.74
2017-05-09T00:12:59.985Z,65.52
2017-05-09T00:14:10.058Z,65.8
2017-05-09T00:15:20.402Z,65.8
2017-05-09T00:16:30.115Z,65.52
2017-05-09T00:17:40.461Z,65.61
2017-05-09T00:18:50.812Z,66.19
2017-05-09T00:20:00.861Z,65.8
2017-05-09T00:21:11.195Z,65.71
2017-05-09T00:22:21.253Z,66
2017-05-09T00:23:31.289Z,65.8
2017-05-09T00:24:41.637Z,65.52
2017-05-09T00:25:51.992Z,65.52
2017-05-09T00:27:02.045Z,65.52
2017-05-09T00:28:12.421Z,65.42
2017-05-09T00:29:22.460Z,65.42
2017-05-09T00:30:32.565Z,65.61
2017-05-09T00:31:42.598Z,65.23
2017-05-09T00:32:52.945Z,65.14
2017-05-09T00:34:03.347Z,64.94
2017-05-09T00:35:13.701Z,65.14
2017-05-09T00:36:24.094Z,64.94
2017-05-09T00:37:34.360Z,65.14
2017-05-09T00:38:44.713Z,64.94
2017-05-09T00:39:54.750Z,65.14
2017-05-09T00:41:05.028Z,65.04
2017-05-09T00:42:15.364Z,65.23
2017-05-09T00:43:25.708Z,65.33
2017-05-09T00:44:36.041Z,65.33
2017-05-09T00:45:46.400Z,65.23
2017-05-09T00:46:56.759Z,65.23
2017-05-09T00:48:06.798Z,65.23
2017-05-09T00:49:17.153Z,65.14
2017-05-09T00:50:27.215Z,65.23
2017-05-09T00:51:37.561Z,65.33
2017-05-09T00:52:47.628Z,65.52
2017-05-09T00:53:58.009Z,65.33
2017-05-09T00:55:08.352Z,65.23
2017-05-09T00:56:18.370Z,65.42
2017-05-09T00:57:28.406Z,65.42
2017-05-09T00:58:38.737Z,65.52
2017-05-09T00:59:48.791Z,65.52
2017-05-09T01:00:58.835Z,65.52
2017-05-09T01:02:08.887Z,65.52
2017-05-09T01:03:19.233Z,65.52
2017-05-09T01:04:28.950Z,65.42
2017-05-09T01:05:39.295Z,65.52
2017-05-09T01:06:49.645Z,65.42
2017-05-09T01:07:59.682Z,65.23
2017-05-09T01:09:10.017Z,65.52
2017-05-09T01:10:20.364Z,65.42
2017-05-09T01:11:30.714Z,65.23
2017-05-09T01:12:41.052Z,65.23
2017-05-09T01:13:51.424Z,65.42
2017-05-09T01:15:01.770Z,65.42
2017-05-09T01:16:11.804Z,65.42
2017-05-09T01:17:21.828Z,65.42
2017-05-09T01:18:32.157Z,65.33
2017-05-09T01:19:42.519Z,65.52
2017-05-09T01:20:52.859Z,65.52
2017-05-09T01:22:02.886Z,65.33
2017-05-09T01:23:13.231Z,65.23
2017-05-09T01:24:23.610Z,65.52
2017-05-09T01:25:33.944Z,65.3
2017-05-09T01:26:43.982Z,65.48
2017-05-09T01:27:54.024Z,65.23
2017-05-09T01:29:04.426Z,65.48
2017-05-09T01:30:14.775Z,65.2
2017-05-09T01:31:25.115Z,65.01
2017-05-09T01:32:35.177Z,64.91
2017-05-09T01:33:45.520Z,65.39
2017-05-09T01:34:55.870Z,65.39
2017-05-09T01:36:05.591Z,65.2
2017-05-09T01:37:15.940Z,65.58
2017-05-09T01:38:26.281Z,65.2
2017-05-09T01:39:36.627Z,65.3
2017-05-09T01:40:46.979Z,65.3
2017-05-09T01:41:57.318Z,65.39
2017-05-09T01:43:07.338Z,65.2
2017-05-09T01:44:17.712Z,65.39
2017-05-09T01:45:28.080Z,65.1
2017-05-09T01:46:38.409Z,65.01
2017-05-09T01:47:48.754Z,65.2
2017-05-09T01:48:59.147Z,65.2
2017-05-09T01:50:09.189Z,65.39
2017-05-09T01:51:19.244Z,65.1
2017-05-09T01:52:29.270Z,65.1
2017-05-09T01:53:39.295Z,65.1
2017-05-09T01:54:49.334Z,65.48
2017-05-09T01:55:59.699Z,65.2
2017-05-09T01:57:10.039Z,65.48
2017-05-09T01:58:20.394Z,65.3
2017-05-09T01:59:30.747Z,65.48
2017-05-09T02:00:40.782Z,65.2
2017-05-09T02:01:51.131Z,65.48
2017-05-09T02:03:01.483Z,65.48
2017-05-09T02:04:11.832Z,65.3
2017-05-09T02:05:22.167Z,65.2
2017-05-09T02:06:32.508Z,65.2
2017-05-09T02:07:42.853Z,65.48
2017-05-09T02:08:52.895Z,65.39
2017-05-09T02:10:03.238Z,65.48
2017-05-09T02:11:13.595Z,65.3
2017-05-09T02:12:23.625Z,65.58
2017-05-09T02:13:33.690Z,65.3
2017-05-09T02:14:43.763Z,65.1
2017-05-09T02:15:54.154Z,65.42
2017-05-09T02:17:04.193Z,64.91
2017-05-09T02:18:14.549Z,65.3
2017-05-09T02:19:24.967Z,65.2
2017-05-09T02:20:35.007Z,65.2
2017-05-09T02:21:45.392Z,65.23
2017-05-09T02:22:55.786Z,65.23
2017-05-09T02:24:06.150Z,65.33
2017-05-09T02:25:16.515Z,65.42
2017-05-09T02:26:26.870Z,65.33
2017-05-09T02:27:37.262Z,65.23
2017-05-09T02:28:47.620Z,65.33
2017-05-09T02:29:57.672Z,65.3
2017-05-09T02:31:08.018Z,65.3
2017-05-09T02:32:18.070Z,65.3
2017-05-09T02:33:28.417Z,65.33
2017-05-09T02:34:38.761Z,65.33
2017-05-09T02:35:49.097Z,65.52
2017-05-09T02:36:59.129Z,64.91
2017-05-09T02:38:09.485Z,65.04
2017-05-09T02:39:19.836Z,65.23
2017-05-09T02:40:29.241Z,65.04
2017-05-09T02:41:39.618Z,64.75
2017-05-09T02:42:49.655Z,65.42
2017-05-09T02:43:59.996Z,65.33
2017-05-09T02:45:10.023Z,65.42
2017-05-09T02:46:20.414Z,65.33
2017-05-09T02:47:30.768Z,65.42
2017-05-09T02:48:40.800Z,65.23
2017-05-09T02:49:51.147Z,65.33
2017-05-09T02:51:01.502Z,65.52
2017-05-09T02:52:11.867Z,65.23
2017-05-09T02:53:22.224Z,65.33
2017-05-09T02:54:32.568Z,65.23
2017-05-09T02:55:42.299Z,65.23
2017-05-09T02:56:52.331Z,65.52
2017-05-09T02:58:02.664Z,65.23
2017-05-09T02:59:13.020Z,65.52
2017-05-09T03:00:23.105Z,65.23
2017-05-09T03:01:33.132Z,65.23
2017-05-09T03:32:48.366Z,62.02
2017-05-09T03:33:58.394Z,62.88
2017-05-09T03:35:08.423Z,63.73
2017-05-09T03:36:18.830Z,64.78
2017-05-09T03:37:28.874Z,64.97
2017-05-09T03:38:39.266Z,65.55
2017-05-09T03:39:49.602Z,66.21
2017-05-09T03:40:59.950Z,66.34
2017-05-09T03:42:10.288Z,66.53
2017-05-09T03:43:20.654Z,66.05
2017-05-09T03:44:30.991Z,65.86
2017-05-09T03:45:41.022Z,66.18
2017-05-09T03:46:51.370Z,65.89
2017-05-09T03:48:01.075Z,66.47
2017-05-09T03:49:11.419Z,66.66
2017-05-09T03:50:21.136Z,66.31
2017-05-09T03:51:31.484Z,66.12
2017-05-09T03:52:41.551Z,66.5
2017-05-09T03:53:51.590Z,66.31
2017-05-09T03:55:01.926Z,66.15
2017-05-09T03:56:12.260Z,66.15
2017-05-09T03:57:22.629Z,65.87
2017-05-09T03:58:32.977Z,65.39
2017-05-09T03:59:43.333Z,65.77
2017-05-09T04:00:53.665Z,66.15
2017-05-09T04:02:03.999Z,66.53
2017-05-09T04:03:14.027Z,65.93
2017-05-09T04:04:24.375Z,66.41
2017-05-09T04:05:34.452Z,66.47
2017-05-09T04:06:44.830Z,66.75
2017-05-09T04:07:55.243Z,66.47
2017-05-09T04:09:05.620Z,66.56
2017-05-09T04:10:15.658Z,66.34
2017-05-09T04:11:25.996Z,66.44
2017-05-09T04:12:36.360Z,65.96
2017-05-09T04:13:46.700Z,66.24
2017-05-09T04:14:56.730Z,66.34
2017-05-09T04:16:07.073Z,66.24
2017-05-09T04:17:17.410Z,66.05
2017-05-09T04:18:27.436Z,65.86
2017-05-09T04:19:37.777Z,65.92
2017-05-09T04:20:47.809Z,65.86
2017-05-09T04:21:58.160Z,65.67
2017-05-09T04:23:08.497Z,65.83
2017-05-09T04:24:18.845Z,65.29
2017-05-09T04:25:28.881Z,65.29
2017-05-09T04:26:39.252Z,65.39
2017-05-09T04:27:49.613Z,65.26
2017-05-09T04:29:00.011Z,65.1
2017-05-09T04:30:10.053Z,65.36
2017-05-09T04:31:20.440Z,65.2
2017-05-09T04:32:30.791Z,64.97
2017-05-09T04:33:40.510Z,65.48
2017-05-09T04:34:50.870Z,65.07
2017-05-09T04:36:00.899Z,65.48
2017-05-09T04:37:11.254Z,65.26
2017-05-09T04:38:21.603Z,65.29
2017-05-09T04:39:31.627Z,65.29
2017-05-09T04:40:41.958Z,64.81
2017-05-09T04:41:52.011Z,65
2017-05-09T04:43:02.358Z,64.81
2017-05-09T04:44:12.727Z,65.1
2017-05-09T04:45:22.746Z,65.1
2017-05-09T04:46:33.089Z,64.91
2017-05-09T04:47:43.435Z,65.1
2017-05-09T04:48:53.801Z,65.39
2017-05-09T04:50:04.146Z,65.39
2017-05-09T04:51:14.174Z,65.1
2017-05-09T04:52:24.510Z,65.1
2017-05-09T04:53:34.238Z,65.29
2017-05-09T04:54:44.579Z,65.29
2017-05-09T04:55:54.620Z,65.48
2017-05-09T04:57:04.964Z,65.29
2017-05-09T04:58:15.011Z,65.1
2017-05-09T04:59:25.367Z,65.39
2017-05-09T05:00:35.728Z,65.29
2017-05-09T05:01:45.755Z,65
2017-05-09T05:02:55.481Z,65.1
2017-05-09T05:04:05.834Z,64.91
2017-05-09T05:05:16.171Z,64.91
2017-05-09T05:06:26.513Z,65.1
2017-05-09T05:07:36.892Z,65.1
2017-05-09T05:08:47.261Z,65.58
2017-05-09T05:09:57.298Z,64.91
2017-05-09T05:11:07.333Z,65
2017-05-09T05:12:17.730Z,65.1
2017-05-09T05:13:28.078Z,65.1
2017-05-09T05:14:38.430Z,65.1
2017-05-09T05:15:48.780Z,65.29
2017-05-09T05:16:59.138Z,65.07
2017-05-09T05:18:09.498Z,65.39
2017-05-09T05:19:19.858Z,65.29
2017-05-09T05:20:30.216Z,65
2017-05-09T05:21:40.569Z,64.72
2017-05-09T05:22:50.582Z,64.91
2017-05-09T05:24:00.308Z,65.1
2017-05-09T05:25:10.656Z,64.91
2017-05-09T05:26:20.990Z,65.07
2017-05-09T05:27:31.314Z,64.91
2017-05-09T05:28:41.659Z,64.87
2017-05-09T05:29:52.006Z,65.1
2017-05-09T05:31:02.349Z,64.91
2017-05-09T05:32:12.688Z,64.62
2017-05-09T05:33:22.710Z,64.62
2017-05-09T05:34:33.061Z,64.72
2017-05-09T05:35:43.391Z,64.72
2017-05-09T05:36:53.737Z,64.91
2017-05-09T05:38:04.088Z,64.91
2017-05-09T05:39:14.420Z,64.81
2017-05-09T05:40:24.793Z,64.81
2017-05-09T05:41:35.153Z,64.91
2017-05-09T05:42:45.487Z,64.91
2017-05-09T05:43:55.827Z,65
2017-05-09T05:45:06.176Z,64.15
2017-05-09T05:46:16.523Z,64.56
2017-05-09T05:47:26.867Z,63.7
2017-05-09T05:48:37.213Z,63.6
2017-05-09T05:49:47.558Z,63.99
2017-05-09T05:50:57.578Z,63.92
2017-05-09T05:52:07.609Z,64.28
2017-05-09T05:53:17.643Z,64.56
2017-05-09T05:54:27.681Z,65.33
2017-05-09T05:55:38.016Z,65.52
2017-05-09T05:56:48.386Z,64.91
2017-05-09T05:57:58.770Z,65.39
2017-05-09T05:59:09.108Z,65.1
2017-05-09T06:00:19.451Z,65.29
2017-05-09T06:01:29.218Z,65.1
2017-05-09T06:02:39.172Z,65.29
2017-05-09T06:03:49.529Z,65.29
2017-05-09T06:04:59.262Z,64.91
2017-05-09T06:06:09.625Z,64.91
2017-05-09T06:07:19.975Z,65.04
2017-05-09T06:08:29.988Z,64.47
2017-05-09T06:09:40.346Z,64.65
2017-05-09T06:10:50.691Z,64.47
2017-05-09T06:12:01.034Z,64.65
2017-05-09T06:13:11.393Z,64.37
2017-05-09T06:14:21.421Z,64.28
2017-05-09T06:15:31.773Z,63.99
2017-05-09T06:16:41.169Z,64.37
2017-05-09T06:17:51.498Z,63.89
2017-05-09T06:19:01.536Z,63.7
2017-05-09T06:20:11.571Z,63.73
2017-05-09T06:21:21.912Z,63.26
2017-05-09T06:22:32.267Z,63.35
2017-05-09T06:23:42.317Z,62.91
2017-05-09T06:24:52.670Z,63
2017-05-09T06:26:03.043Z,63.67
2017-05-09T06:27:13.430Z,63.39
2017-05-09T06:28:23.782Z,63.86
2017-05-09T06:29:33.833Z,63.67
2017-05-09T06:30:44.176Z,63.96
2017-05-09T06:31:54.247Z,63.86
2017-05-09T06:39:36.592Z,63.13
2017-05-09T06:40:46.641Z,62.18
2017-05-09T06:41:56.722Z,62.3
2017-05-09T06:43:07.062Z,62.97
2017-05-09T06:44:17.106Z,62.78
2017-05-09T06:45:27.446Z,62.78
2017-05-09T06:46:37.786Z,63.8
2017-05-09T06:47:48.148Z,64.09
2017-05-09T06:48:58.493Z,63.99
2017-05-09T06:50:08.531Z,64.18
2017-05-09T06:51:18.559Z,64.47
2017-05-09T06:52:28.917Z,64.18
2017-05-09T06:53:39.259Z,64.34
2017-05-09T06:54:49.593Z,64.05
2017-05-09T06:55:59.953Z,63.96
2017-05-09T06:57:09.995Z,64.15
2017-05-09T06:58:20.350Z,64.25
2017-05-09T06:59:30.711Z,64.43
2017-05-09T07:00:41.058Z,64.34
2017-05-09T07:01:51.095Z,63.86
2017-05-09T07:03:01.455Z,63.96
2017-05-09T07:04:11.802Z,63.7
2017-05-09T07:05:22.159Z,63.23
2017-05-09T07:06:32.500Z,63.51
2017-05-09T07:07:42.861Z,63.51
2017-05-09T07:08:52.944Z,64.09
2017-05-09T07:10:02.990Z,63.8
2017-05-09T07:11:13.013Z,64.05
2017-05-09T07:12:23.379Z,64.43
2017-05-09T07:13:33.095Z,64.15
2017-05-09T07:14:43.142Z,64.34
2017-05-09T07:15:53.516Z,63.96
2017-05-09T07:17:03.562Z,64.15
2017-05-09T07:18:13.588Z,64.25
2017-05-09T07:19:23.623Z,64.12
2017-05-09T07:20:33.993Z,64.4
2017-05-09T07:21:44.336Z,64.31
2017-05-09T07:22:54.380Z,64.5
2017-05-09T07:24:04.742Z,64.4
2017-05-09T07:25:15.140Z,64.5
2017-05-09T07:26:25.500Z,64.97
2017-05-09T07:27:35.846Z,64.97
2017-05-09T07:28:46.195Z,64.97
2017-05-09T07:29:56.238Z,64.85
2017-05-09T07:31:06.594Z,64.75
2017-05-09T07:32:15.999Z,64.65
2017-05-09T07:33:26.377Z,65.04
2017-05-09T07:34:36.406Z,64.94
2017-05-09T07:35:46.436Z,65.04
2017-05-09T07:36:56.480Z,65.33
2017-05-09T07:38:06.559Z,65.33
2017-05-09T07:39:16.907Z,65.42
2017-05-09T07:40:26.640Z,65.04
2017-05-09T07:41:36.663Z,64.94
2017-05-09T07:42:47.004Z,64.65
2017-05-09T07:43:57.350Z,64.85
2017-05-09T07:45:07.698Z,64.75
2017-05-09T07:46:18.049Z,64.65
2017-05-09T07:47:27.787Z,64.18
2017-05-09T07:48:38.133Z,64.09
2017-05-09T07:49:48.200Z,64.09
2017-05-09T07:50:58.242Z,63.99
2017-05-09T07:52:08.588Z,64.09
2017-05-09T07:53:18.930Z,63.8
2017-05-09T07:54:29.273Z,64.18
2017-05-09T07:55:39.613Z,64.47
2017-05-09T07:56:49.645Z,64.94
2017-05-09T07:58:00.003Z,64.75
2017-05-09T07:59:10.047Z,64.75
2017-05-09T08:00:20.401Z,64.72
2017-05-09T08:01:30.481Z,64.62
2017-05-09T08:02:40.824Z,64.81
2017-05-09T08:03:51.173Z,64.65
2017-05-09T08:05:01.514Z,64.28
2017-05-09T08:06:11.878Z,64.09
2017-05-09T08:07:21.935Z,64.09
2017-05-09T08:08:32.283Z,64.37
2017-05-09T08:09:42.619Z,64.18
2017-05-09T08:10:52.976Z,64.28
2017-05-09T08:12:03.380Z,64.47
2017-05-09T08:13:13.410Z,64.18
2017-05-09T08:14:23.455Z,64.28
2017-05-09T08:15:33.493Z,64.37
2017-05-09T08:16:43.521Z,64.09
2017-05-09T08:17:53.555Z,64.18
2017-05-09T08:19:03.905Z,64.09
2017-05-09T08:20:14.246Z,63.89
2017-05-09T08:21:23.963Z,64.28
2017-05-09T08:22:33.391Z,64.28
2017-05-09T08:23:43.753Z,63.8
2017-05-09T08:24:54.137Z,64.09
2017-05-09T08:26:04.172Z,63.99
2017-05-09T08:27:14.206Z,63.64
2017-05-09T08:28:24.561Z,64.12
2017-05-09T08:29:34.607Z,63.35
2017-05-09T08:30:44.642Z,63.26
2017-05-09T08:31:54.992Z,63.54
2017-05-09T08:33:05.361Z,63.54
2017-05-09T08:34:15.391Z,63.35
2017-05-09T08:35:25.440Z,63.2
2017-05-09T08:36:35.513Z,63.1
2017-05-09T08:37:45.842Z,63
2017-05-09T08:38:56.183Z,62.15
2017-05-09T08:40:06.538Z,61.89
2017-05-09T08:41:16.911Z,62.18
2017-05-09T08:42:27.278Z,61.92
2017-05-09T08:43:37.640Z,61.54
2017-05-09T08:44:48.011Z,61.35
2017-05-09T08:45:58.372Z,60.61
2017-05-09T08:47:08.729Z,60.45
2017-05-09T08:48:19.096Z,60.55
2017-05-09T08:49:29.133Z,60.45
2017-05-09T08:50:39.169Z,60.55
2017-05-09T08:51:49.526Z,60.96
2017-05-09T08:52:59.886Z,60.64
2017-05-09T08:54:10.229Z,61.44
2017-05-09T08:55:20.577Z,61.12
2017-05-09T08:56:30.924Z,61.31
2017-05-09T08:57:41.285Z,61.72
2017-05-09T08:58:51.311Z,61.44
2017-05-09T09:00:01.350Z,61.34
2017-05-09T09:01:11.707Z,61.82
2017-05-09T09:02:21.749Z,62.01
2017-05-09T09:03:31.787Z,62.27
2017-05-09T09:04:42.147Z,63.13
2017-05-09T09:05:52.749Z,63.29
2017-05-09T09:07:03.081Z,63.29
2017-05-09T09:08:12.818Z,62.94
2017-05-09T09:09:23.161Z,63.13
2017-05-09T09:10:33.529Z,62.94
2017-05-09T09:11:43.875Z,63.19
2017-05-09T09:12:53.901Z,63.29
2017-05-09T09:14:04.244Z,63.67
2017-05-09T09:15:14.596Z,64.05
2017-05-09T09:16:24.617Z,63.73
2017-05-09T09:17:34.980Z,64.4
2017-05-09T09:18:45.349Z,64.28
2017-05-09T09:19:55.737Z,64.18
2017-05-09T09:21:05.771Z,64.09
2017-05-09T09:22:15.813Z,64.37
2017-05-09T09:23:26.191Z,64.28
2017-05-09T09:24:36.535Z,64.37
2017-05-09T09:25:46.269Z,64.37
2017-05-09T09:26:56.348Z,64.37
2017-05-09T09:28:06.706Z,64.37
2017-05-09T09:29:17.056Z,64.43
2017-05-09T09:30:27.401Z,64.34
2017-05-09T09:31:37.445Z,64.15
2017-05-09T09:32:47.796Z,64.43
2017-05-09T09:33:58.150Z,64.25
2017-05-09T09:35:08.536Z,63.96
2017-05-09T09:36:18.878Z,64.25
2017-05-09T09:37:28.920Z,64.5
2017-05-09T09:38:39.277Z,64.4
2017-05-09T09:39:49.679Z,64.12
2017-05-09T09:40:59.727Z,64.5
2017-05-09T09:42:09.467Z,64.5
2017-05-09T09:43:19.502Z,64.15
2017-05-09T09:44:29.863Z,64.34
2017-05-09T09:45:40.232Z,64.34
2017-05-09T09:46:50.588Z,64.53
2017-05-09T09:48:00.648Z,64.31
2017-05-09T09:49:11.035Z,64.21
2017-05-09T09:50:21.067Z,64.12
2017-05-09T09:51:31.432Z,63.92
2017-05-09T09:52:41.773Z,64.12
2017-05-09T09:53:51.808Z,64.12
2017-05-09T09:55:02.157Z,64.21
2017-05-09T09:56:12.215Z,64.37
2017-05-09T09:57:22.592Z,64.65
2017-05-09T09:58:32.957Z,64.65
2017-05-09T09:59:42.998Z,64.85
2017-05-09T10:00:53.045Z,64.75
2017-05-09T10:02:03.083Z,64.85
2017-05-09T10:03:13.443Z,64.75
2017-05-09T10:04:23.805Z,64.85
2017-05-09T10:05:34.164Z,65.13
2017-05-09T10:06:44.233Z,64.56
2017-05-09T10:07:54.579Z,64.65
2017-05-09T10:09:04.617Z,64.28
2017-05-09T10:10:14.977Z,63.8
2017-05-09T10:11:24.737Z,64.47
2017-05-09T10:12:35.090Z,64.09
2017-05-09T10:13:45.123Z,64.28
2017-05-09T10:14:54.848Z,63.8
2017-05-09T10:16:04.885Z,63.51
2017-05-09T10:17:15.232Z,63.8
2017-05-09T10:18:25.275Z,63.35
2017-05-09T10:19:35.634Z,63.16
2017-05-09T10:20:45.992Z,63.16
2017-05-09T10:21:55.708Z,62.97
2017-05-09T10:23:06.087Z,62.91
2017-05-09T10:24:16.133Z,62.71
2017-05-09T10:25:25.560Z,63
2017-05-09T10:26:35.915Z,63
2017-05-09T10:27:46.301Z,62.43
2017-05-09T10:28:56.362Z,62.27
2017-05-09T10:30:06.410Z,61.69
2017-05-09T10:31:16.764Z,62.18
2017-05-09T10:32:27.131Z,61.63
2017-05-09T10:33:37.217Z,61.76
2017-05-09T10:34:47.252Z,61.47
2017-05-09T10:35:57.609Z,60.83
2017-05-09T10:37:07.353Z,60.64
2017-05-09T10:38:17.718Z,60.48
2017-05-09T10:39:28.078Z,61.15
2017-05-09T10:40:38.436Z,61.25
2017-05-09T10:41:48.818Z,61.79
2017-05-09T10:42:58.868Z,62.17
2017-05-09T10:44:09.202Z,62.17
2017-05-09T10:45:19.269Z,62.37
2017-05-09T10:46:29.632Z,61.72
2017-05-09T10:47:39.968Z,61.82
2017-05-09T10:48:50.316Z,61.63
2017-05-09T10:50:00.352Z,61.91
2017-05-09T10:51:10.385Z,62.01
2017-05-09T10:52:20.741Z,61.98
2017-05-09T10:53:31.087Z,62.01
2017-05-09T10:54:41.134Z,61.54
2017-05-09T10:55:51.176Z,60.51
2017-05-09T10:57:01.237Z,59.97
2017-05-09T10:58:10.645Z,60.67
2017-05-09T10:59:20.684Z,59.9
2017-05-09T11:00:31.052Z,60.96
2017-05-09T11:01:41.408Z,61.15
2017-05-09T11:02:51.754Z,61.98
2017-05-09T11:04:02.128Z,62.33
2017-05-09T11:05:12.159Z,63.06
2017-05-09T11:06:22.187Z,64.09
2017-05-09T11:07:31.928Z,64.37
2017-05-09T11:08:41.966Z,64.34
2017-05-09T11:09:52.330Z,64.82
2017-05-09T11:11:02.668Z,64.72
2017-05-09T11:12:13.009Z,64.82
2017-05-09T11:13:23.038Z,65.07
2017-05-09T11:14:32.763Z,65.07
2017-05-09T11:15:43.109Z,65.07
2017-05-09T11:16:52.849Z,64.56
2017-05-09T11:18:03.192Z,64.09
2017-05-09T11:19:13.228Z,64.5
2017-05-09T11:20:23.602Z,63.73
2017-05-09T11:21:33.943Z,63.19
2017-05-09T11:22:44.283Z,62.62
2017-05-09T11:23:54.661Z,61.6
2017-05-09T11:25:04.696Z,60.41
2017-05-09T11:26:15.040Z,60.16
2017-05-09T11:27:25.417Z,59.36
2017-05-09T11:28:35.472Z,60.03
2017-05-09T11:29:45.826Z,59.83
2017-05-09T11:30:55.562Z,60.5
2017-05-09T11:32:05.616Z,60.86
2017-05-09T11:33:16.030Z,61.91
2017-05-09T11:34:26.397Z,62.17
2017-05-09T11:35:36.762Z,63.03
2017-05-09T11:36:46.808Z,63.29
2017-05-09T11:37:57.160Z,63.86
2017-05-09T11:39:07.555Z,64.02
2017-05-09T11:40:17.904Z,64.02
2017-05-09T11:41:27.644Z,64.66
2017-05-09T11:42:38.000Z,64.37
2017-05-09T11:43:48.361Z,64.82
2017-05-09T11:44:58.694Z,65.01
2017-05-09T11:46:09.097Z,65.3
2017-05-09T11:47:19.436Z,65.26
2017-05-09T11:48:29.776Z,64.78
2017-05-09T11:49:39.821Z,65.17
2017-05-09T11:50:50.187Z,64.12
2017-05-09T11:52:00.542Z,64.31
2017-05-09T11:53:10.569Z,64.34
2017-05-09T11:54:20.927Z,63.48
2017-05-09T11:55:30.960Z,63.86
2017-05-09T11:56:41.324Z,63
2017-05-09T11:57:51.388Z,63.19
2017-05-09T11:59:01.433Z,62.37
2017-05-09T12:00:11.511Z,61.98
2017-05-09T12:01:21.246Z,62.2
2017-05-09T12:02:31.624Z,61.44
2017-05-09T12:03:41.668Z,61.28
2017-05-09T12:04:52.029Z,60.61
2017-05-09T12:06:02.394Z,60.64
2017-05-09T12:07:12.758Z,60.28
2017-05-09T12:08:23.139Z,60.19
2017-05-09T12:09:33.499Z,60.03
2017-05-09T12:10:43.845Z,59.83
2017-05-09T12:11:53.872Z,59.09
2017-05-09T12:13:04.219Z,59.54
2017-05-09T12:14:14.580Z,59.32
2017-05-09T12:15:24.644Z,58.96
2017-05-09T12:16:34.674Z,58.22
2017-05-09T12:17:44.735Z,57.97
2017-05-09T12:18:54.472Z,58.54
2017-05-09T12:20:04.197Z,58.67
2017-05-09T12:21:14.583Z,58.79
2017-05-09T12:22:24.948Z,58.79
2017-05-09T12:23:35.295Z,59.17
2017-05-09T12:24:45.332Z,60.04
2017-05-09T12:25:55.371Z,60.49
2017-05-09T12:27:05.470Z,60.75
2017-05-09T12:28:15.223Z,62.16
2017-05-09T12:29:25.278Z,62.42
2017-05-09T12:30:35.332Z,62.58
2017-05-09T12:31:45.682Z,63.25
2017-05-09T12:32:56.033Z,63.42
2017-05-09T12:34:06.075Z,63.22
2017-05-09T12:35:16.132Z,63.48
2017-05-09T12:36:26.509Z,63.48
2017-05-09T12:37:36.861Z,63.29
2017-05-09T12:38:47.229Z,63.29
2017-05-09T12:39:57.634Z,63.29
2017-05-09T12:41:07.345Z,62.9
2017-05-09T12:42:17.076Z,62.13
2017-05-09T12:43:27.109Z,62.33
2017-05-09T12:44:37.462Z,62.13
2017-05-09T12:45:47.821Z,62.9
2017-05-09T12:46:58.180Z,63.26
2017-05-09T12:48:08.535Z,63.99
2017-05-09T12:49:18.891Z,64.18
2017-05-09T12:50:29.273Z,64.72
2017-05-09T12:51:39.325Z,64.34
2017-05-09T12:52:49.405Z,64.43
2017-05-09T12:53:59.476Z,63.83
2017-05-09T12:55:09.816Z,64.12
2017-05-09T12:56:19.869Z,63.39
2017-05-09T12:57:29.921Z,63.1
2017-05-09T12:58:39.957Z,61.94
2017-05-09T12:59:50.373Z,61.79
2017-05-09T13:01:04.141Z,60.57
2017-05-09T13:02:14.519Z,60.5
2017-05-09T13:03:24.643Z,60.35
2017-05-09T13:04:34.831Z,59.51
2017-05-09T13:05:45.337Z,58.96
2017-05-09T13:06:55.373Z,59.09
2017-05-09T13:08:05.740Z,58.83
2017-05-09T13:09:16.385Z,58.35
2017-05-09T13:10:26.790Z,59.41
2017-05-09T13:11:37.146Z,59.69
2017-05-09T13:12:47.197Z,60.37
2017-05-09T13:13:57.550Z,60.63
2017-05-09T13:15:07.590Z,60.98
2017-05-09T13:16:17.936Z,61.55
2017-05-09T13:17:28.285Z,61.52
2017-05-09T13:18:38.321Z,61.62
2017-05-09T13:19:48.733Z,61.52
2017-05-09T13:20:58.765Z,61.52
2017-05-09T13:22:08.481Z,61.72
2017-05-09T13:23:18.842Z,62.19
2017-05-09T13:24:29.199Z,61.91
2017-05-09T13:25:39.590Z,61.78
2017-05-09T13:26:49.937Z,61.78
2017-05-09T13:28:00.301Z,61.33
2017-05-09T13:29:10.661Z,61.14
2017-05-09T13:30:21.008Z,61.05
2017-05-09T13:31:31.045Z,60.38
2017-05-09T13:32:41.095Z,60.98
2017-05-09T13:33:51.447Z,60.78
2017-05-09T13:35:01.852Z,60.5
2017-05-09T13:36:12.201Z,60.43
2017-05-09T13:37:22.293Z,60.34
2017-05-09T13:38:32.327Z,60.17
2017-05-09T13:39:42.366Z,60.56
2017-05-09T13:40:52.783Z,60.56
2017-05-09T13:42:03.147Z,60.53
2017-05-09T13:43:13.490Z,60.91
2017-05-09T13:44:23.531Z,60.82
2017-05-09T13:45:33.873Z,61.2
2017-05-09T13:46:44.228Z,61.11
2017-05-09T13:47:54.589Z,61.65
2017-05-09T13:49:04.945Z,61.55
2017-05-09T13:50:15.288Z,61.65
2017-05-09T13:51:25.319Z,61.55
2017-05-09T13:52:35.400Z,61.75
2017-05-09T13:53:45.780Z,62.13
2017-05-09T13:54:56.141Z,61.46
2017-05-09T13:56:06.497Z,61.2
2017-05-09T13:57:16.557Z,60.82
2017-05-09T13:58:26.896Z,60.98
2017-05-09T13:59:36.947Z,61.55
2017-05-09T14:00:47.305Z,61.55
2017-05-09T14:01:57.325Z,62.01
2017-05-09T14:03:07.695Z,61.91
2017-05-09T14:04:17.730Z,62.01
2017-05-09T14:05:28.138Z,61.72
2017-05-09T14:06:38.175Z,61.81
2017-05-09T14:07:48.537Z,60.78
2017-05-09T14:08:58.916Z,60.98
2017-05-09T14:10:09.283Z,60.53
2017-05-09T14:11:19.638Z,60.63
2017-05-09T14:12:29.990Z,60.53
2017-05-09T14:13:40.366Z,60.08
2017-05-09T14:14:50.981Z,60.49
2017-05-09T14:16:01.034Z,60.21
2017-05-09T14:17:11.395Z,60.39
2017-05-09T14:18:21.754Z,60.17
2017-05-09T14:19:31.844Z,60.85
2017-05-09T14:20:42.205Z,60.37
2017-05-09T14:21:52.277Z,60.85
2017-05-09T14:23:02.646Z,60.94
2017-05-09T14:24:13.009Z,60.63
2017-05-09T14:25:23.451Z,60.85
2017-05-09T14:26:33.489Z,60.85
2017-05-09T14:27:43.548Z,60.94
2017-05-09T14:28:53.595Z,60.91
2017-05-09T14:30:03.948Z,60.72
2017-05-09T14:31:14.315Z,61.2
2017-05-09T14:32:24.666Z,60.63
2017-05-09T14:33:34.752Z,60.91
2017-05-09T14:34:45.106Z,60.91
2017-05-09T14:35:54.862Z,60.72
2017-05-09T14:37:04.929Z,61.08
2017-05-09T14:38:14.964Z,61.17
2017-05-09T14:39:25.338Z,61.65
2017-05-09T14:40:35.704Z,61.75
2017-05-09T14:41:45.750Z,62.19
2017-05-09T14:42:55.806Z,61.91
2017-05-09T14:44:06.196Z,61.91
2017-05-09T14:45:16.580Z,62.19
2017-05-09T14:46:26.956Z,62.45
2017-05-09T14:47:37.338Z,62.45
2017-05-09T14:48:47.725Z,61.98
2017-05-09T14:49:58.138Z,61.98
2017-05-09T14:51:08.571Z,62.1
2017-05-09T14:52:18.952Z,61.91
2017-05-09T14:53:29.349Z,62.16
2017-05-09T14:54:39.745Z,61.91
2017-05-09T14:55:50.151Z,62.19
2017-05-09T14:57:00.554Z,61.98
2017-05-09T14:58:10.948Z,62.16
2017-05-09T14:59:21.395Z,62.16
2017-05-09T15:00:31.474Z,62.45
2017-05-09T15:01:41.830Z,62.33
2017-05-09T15:02:52.178Z,61.94
2017-05-09T15:04:02.233Z,62.04
2017-05-09T15:05:11.979Z,62.23
2017-05-09T15:06:22.033Z,62.23
2017-05-09T15:07:32.415Z,62.33
2017-05-09T15:08:42.464Z,62.04
2017-05-09T15:09:52.848Z,62.13
2017-05-09T15:11:03.201Z,62.23
2017-05-09T15:12:13.568Z,62.42
2017-05-09T15:13:23.925Z,62.49
2017-05-09T15:14:33.958Z,62.3
2017-05-09T15:15:44.006Z,62.3
2017-05-09T15:16:53.752Z,62.01
2017-05-09T15:18:03.512Z,61.82
2017-05-09T15:19:13.924Z,62.04
2017-05-09T15:20:24.295Z,61.56
2017-05-09T15:21:34.356Z,61.66
2017-05-09T15:22:44.729Z,61.46
2017-05-09T15:23:54.774Z,61.46
2017-05-09T15:25:05.146Z,61.75
2017-05-09T15:26:15.492Z,61.85
2017-05-09T15:27:25.857Z,61.94
2017-05-09T15:28:36.222Z,62.2
2017-05-09T15:29:46.596Z,62.1
2017-05-09T15:30:56.952Z,62.13
2017-05-09T15:32:07.319Z,62.23
2017-05-09T15:33:17.375Z,61.94
2017-05-09T15:34:27.468Z,61.94
2017-05-09T15:35:37.503Z,62.39
2017-05-09T15:36:47.566Z,62.1
2017-05-09T15:37:57.946Z,62.01
2017-05-09T15:39:08.304Z,62.39
2017-05-09T15:40:18.673Z,62.39
2017-05-09T15:41:29.044Z,62.39
2017-05-09T15:42:39.420Z,61.53
2017-05-09T15:43:49.781Z,60.79
2017-05-09T15:45:00.147Z,60.72